Time;durP1;ratioP1;P1;durP2;ratioP2;P2;SDS_P1;SDS_P2;PMS_P1;PMS_P2;Temp;Humidity;BMP_temperature;BMP_pressure;BME280_temperature;BME280_humidity;BME280_pressure;Samples;Min_cycle;Max_cycle;Signal;HPM_P1;HPM_P2
2024/03/07 00:00:03;;;;;;;2.00;1.58;;;;;;;;;;5030336;28;59148;-73
2024/03/07 00:02:29;;;;;;;1.52;1.42;;;;;;;;;;5028577;28;60419;-75
2024/03/07 00:04:54;;;;;;;1.53;1.43;;;;;;;;;;5026581;28;59406;-75
2024/03/07 00:07:20;;;;;;;1.58;1.48;;;;;;;;;;5027381;28;59224;-76
2024/03/07 00:09:46;;;;;;;1.50;1.40;;;;;;;;;;5031387;28;59463;-76
2024/03/07 00:12:12;;;;;;;1.48;1.38;;;;;;;;;;5027093;28;59385;-76
2024/03/07 00:14:37;;;;;;;1.83;1.73;;;;;;;;;;5027902;28;59254;-75
2024/03/07 00:17:02;;;;;;;1.13;1.13;;;;;;;;;;5027459;28;60307;-75
2024/03/07 00:19:29;;;;;;;1.38;1.25;;;;;;;;;;5029950;28;59291;-73
2024/03/07 00:21:55;;;;;;;2.97;1.98;;;;;;;;;;5027826;28;59347;-75
2024/03/07 00:24:20;;;;;;;1.17;1.08;;;;;;;;;;5026361;28;59491;-75
2024/03/07 00:26:46;;;;;;;1.77;1.67;;;;;;;;;;5024178;28;59270;-76
2024/03/07 00:29:11;;;;;;;1.33;1.20;;;;;;;;;;5025719;28;59309;-75
2024/03/07 00:31:36;;;;;;;1.40;1.27;;;;;;;;;;5026897;28;59401;-75
2024/03/07 00:34:01;;;;;;;2.40;1.70;;;;;;;;;;5028692;28;59357;-76
2024/03/07 00:36:27;;;;;;;1.17;1.13;;;;;;;;;;5025423;27;60515;-75
2024/03/07 00:38:52;;;;;;;2.00;1.40;;;;;;;;;;5029221;28;59430;-75
2024/03/07 00:41:19;;;;;;;2.58;1.27;;;;;;;;;;5025202;28;59309;-75
2024/03/07 00:43:44;;;;;;;1.52;1.42;;;;;;;;;;5024612;28;60171;-76
2024/03/07 00:46:10;;;;;;;1.60;1.30;;;;;;;;;;5024303;28;59343;-75
2024/03/07 00:48:36;;;;;;;1.80;1.70;;;;;;;;;;5022136;28;65994;-75
2024/03/07 00:51:01;;;;;;;1.63;1.53;;;;;;;;;;5020463;28;59576;-75
2024/03/07 00:53:26;;;;;;;2.30;2.10;;;;;;;;;;5022468;28;59505;-75
2024/03/07 00:55:52;;;;;;;2.10;1.50;;;;;;;;;;5023565;28;60302;-75
2024/03/07 00:58:17;;;;;;;1.85;1.67;;;;;;;;;;5021837;28;59325;-76
2024/03/07 01:00:43;;;;;;;1.57;1.47;;;;;;;;;;5023934;28;59273;-76
2024/03/07 01:03:13;;;;;;;1.50;1.40;;;;;;;;;;5023819;28;61007;-75
2024/03/07 01:05:39;;;;;;;1.88;1.30;;;;;;;;;;5022974;28;59226;-75
2024/03/07 01:08:05;;;;;;;1.23;1.10;;;;;;;;;;5024639;28;60319;-75
2024/03/07 01:10:30;;;;;;;1.75;1.65;;;;;;;;;;5022059;28;60856;-75
2024/03/07 01:13:00;;;;;;;1.93;1.33;;;;;;;;;;5023835;28;59316;-75
2024/03/07 01:15:25;;;;;;;1.52;1.42;;;;;;;;;;5022909;28;60737;-75
2024/03/07 01:17:50;;;;;;;3.70;1.93;;;;;;;;;;5023190;28;59345;-75
2024/03/07 01:20:16;;;;;;;1.48;1.38;;;;;;;;;;5024540;28;59139;-75
2024/03/07 01:22:41;;;;;;;1.40;1.30;;;;;;;;;;5024266;28;59367;-75
2024/03/07 01:25:06;;;;;;;3.43;1.80;;;;;;;;;;5025056;28;59333;-75
2024/03/07 01:27:32;;;;;;;1.60;1.50;;;;;;;;;;5022805;28;60373;-75
2024/03/07 01:29:57;;;;;;;1.45;1.35;;;;;;;;;;5023513;28;59281;-75
2024/03/07 01:32:22;;;;;;;1.73;1.63;;;;;;;;;;5023582;28;59257;-75
2024/03/07 01:34:48;;;;;;;1.37;1.27;;;;;;;;;;5024007;28;60369;-75
2024/03/07 01:37:13;;;;;;;1.30;1.20;;;;;;;;;;5022831;28;59199;-75
2024/03/07 01:39:38;;;;;;;1.42;1.33;;;;;;;;;;5021428;28;59167;-75
2024/03/07 01:42:04;;;;;;;1.50;1.40;;;;;;;;;;5021794;28;60149;-75
2024/03/07 01:44:31;;;;;;;1.75;1.63;;;;;;;;;;5023272;28;59329;-75
2024/03/07 01:46:56;;;;;;;2.13;1.38;;;;;;;;;;5024971;28;59267;-75
2024/03/07 01:49:22;;;;;;;1.77;1.60;;;;;;;;;;5023090;28;59810;-75
2024/03/07 01:51:48;;;;;;;1.55;1.45;;;;;;;;;;5024422;28;59299;-75
2024/03/07 01:54:13;;;;;;;1.52;1.42;;;;;;;;;;5026496;28;61262;-75
2024/03/07 01:56:39;;;;;;;1.27;1.17;;;;;;;;;;5024146;28;59237;-75
2024/03/07 01:59:05;;;;;;;1.90;1.73;;;;;;;;;;5025955;28;59149;-75
2024/03/07 02:01:30;;;;;;;1.42;1.33;;;;;;;;;;5024131;28;59589;-75
2024/03/07 02:03:55;;;;;;;1.67;1.57;;;;;;;;;;5026629;28;59383;-75
2024/03/07 02:06:20;;;;;;;1.73;1.63;;;;;;;;;;5028259;28;59554;-75
2024/03/07 02:08:47;;;;;;;1.50;1.30;;;;;;;;;;5026121;28;61103;-74
2024/03/07 02:11:13;;;;;;;2.00;1.80;;;;;;;;;;5030496;28;59323;-73
2024/03/07 02:13:38;;;;;;;1.88;1.77;;;;;;;;;;5029576;28;60969;-75
2024/03/07 02:16:03;;;;;;;1.77;1.67;;;;;;;;;;5027540;28;59382;-75
2024/03/07 02:18:29;;;;;;;2.03;1.67;;;;;;;;;;5026988;28;59225;-74
2024/03/07 02:20:54;;;;;;;1.80;1.70;;;;;;;;;;5030705;28;60315;-74
2024/03/07 02:23:20;;;;;;;1.92;1.83;;;;;;;;;;5026366;28;59832;-77
2024/03/07 02:25:45;;;;;;;1.45;1.35;;;;;;;;;;5026333;28;59207;-77
2024/03/07 02:28:11;;;;;;;1.60;1.50;;;;;;;;;;5027003;28;60433;-77
2024/03/07 02:30:36;;;;;;;1.70;1.60;;;;;;;;;;5027262;28;59485;-77
2024/03/07 02:33:06;;;;;;;3.13;2.10;;;;;;;;;;5027850;28;59363;-74
2024/03/07 02:35:35;;;;;;;1.58;1.48;;;;;;;;;;5026739;28;59255;-75
2024/03/07 02:38:00;;;;;;;1.42;1.33;;;;;;;;;;5025488;28;59215;-74
2024/03/07 02:40:25;;;;;;;1.70;1.60;;;;;;;;;;5028574;28;60189;-75
2024/03/07 02:42:51;;;;;;;1.92;1.58;;;;;;;;;;5026079;28;59385;-75
2024/03/07 02:45:16;;;;;;;1.95;1.85;;;;;;;;;;5027117;28;59356;-74
2024/03/07 02:47:43;;;;;;;1.50;1.40;;;;;;;;;;5026447;28;60236;-75
2024/03/07 02:50:09;;;;;;;1.30;1.20;;;;;;;;;;5025641;28;59950;-75
2024/03/07 02:52:34;;;;;;;1.75;1.65;;;;;;;;;;5026576;28;59306;-75
2024/03/07 02:54:59;;;;;;;2.10;2.00;;;;;;;;;;5026537;28;59240;-75
2024/03/07 02:57:24;;;;;;;1.50;1.40;;;;;;;;;;5024991;28;59236;-75
2024/03/07 02:59:50;;;;;;;2.25;1.70;;;;;;;;;;5027301;28;59448;-75
2024/03/07 03:02:15;;;;;;;3.05;1.60;;;;;;;;;;5025722;28;59484;-75
2024/03/07 03:04:40;;;;;;;1.52;1.42;;;;;;;;;;5027674;28;59221;-75
2024/03/07 03:07:06;;;;;;;1.65;1.55;;;;;;;;;;5026964;28;61310;-75
2024/03/07 03:09:33;;;;;;;2.10;2.00;;;;;;;;;;5031314;28;59223;-75
2024/03/07 03:11:58;;;;;;;2.08;1.92;;;;;;;;;;5029543;28;59174;-74
2024/03/07 03:14:23;;;;;;;3.23;2.27;;;;;;;;;;5031973;28;59303;-75
2024/03/07 03:16:48;;;;;;;1.55;1.45;;;;;;;;;;5030863;28;59304;-75
2024/03/07 03:19:14;;;;;;;1.47;1.37;;;;;;;;;;5032613;28;61129;-75
2024/03/07 03:21:40;;;;;;;1.88;1.77;;;;;;;;;;5029213;28;59418;-75
2024/03/07 03:24:07;;;;;;;1.80;1.70;;;;;;;;;;5029259;28;59222;-75
2024/03/07 03:26:32;;;;;;;2.22;2.13;;;;;;;;;;5029988;28;60700;-74
2024/03/07 03:28:57;;;;;;;1.67;1.57;;;;;;;;;;5030324;28;59447;-74
2024/03/07 03:31:22;;;;;;;2.65;2.45;;;;;;;;;;5031354;28;59150;-75
2024/03/07 03:33:47;;;;;;;2.10;2.00;;;;;;;;;;5030779;28;59246;-74
2024/03/07 03:36:14;;;;;;;2.65;2.45;;;;;;;;;;5030205;28;59318;-75
2024/03/07 03:38:39;;;;;;;2.13;2.03;;;;;;;;;;5027587;28;60998;-75
2024/03/07 03:41:04;;;;;;;2.08;1.90;;;;;;;;;;5027053;28;59346;-74
2024/03/07 03:43:29;;;;;;;2.05;1.95;;;;;;;;;;5028316;28;59178;-75
2024/03/07 03:45:55;;;;;;;2.50;2.30;;;;;;;;;;5031308;28;59147;-75
2024/03/07 03:48:21;;;;;;;2.05;1.95;;;;;;;;;;5029069;28;59444;-75
2024/03/07 03:50:47;;;;;;;2.28;2.08;;;;;;;;;;5027890;28;59465;-75
2024/03/07 03:53:12;;;;;;;2.20;2.00;;;;;;;;;;5031397;28;59277;-75
2024/03/07 03:55:37;;;;;;;2.90;1.97;;;;;;;;;;5030056;28;59238;-74
2024/03/07 03:58:02;;;;;;;2.10;2.00;;;;;;;;;;5030375;28;59328;-75
2024/03/07 04:00:28;;;;;;;2.40;2.20;;;;;;;;;;5027930;28;60203;-75
2024/03/07 04:02:53;;;;;;;2.42;2.22;;;;;;;;;;5029122;28;59218;-75
2024/03/07 04:05:19;;;;;;;1.87;1.77;;;;;;;;;;5030637;28;60115;-74
2024/03/07 04:07:45;;;;;;;2.42;2.22;;;;;;;;;;5029838;28;59194;-75
2024/03/07 04:10:11;;;;;;;2.20;2.00;;;;;;;;;;5031256;28;59206;-75
2024/03/07 04:12:39;;;;;;;2.33;2.13;;;;;;;;;;5027297;28;61080;-75
2024/03/07 04:15:07;;;;;;;2.70;2.47;;;;;;;;;;5026067;28;59154;-75
2024/03/07 04:17:33;;;;;;;1.92;1.83;;;;;;;;;;5032400;27;59222;-75
2024/03/07 04:19:58;;;;;;;2.10;1.90;;;;;;;;;;5028061;28;60262;-74
2024/03/07 04:22:24;;;;;;;2.30;2.07;;;;;;;;;;5028553;28;59284;-75
2024/03/07 04:24:53;;;;;;;2.30;1.90;;;;;;;;;;5028763;28;59320;-75
2024/03/07 04:27:19;;;;;;;2.92;2.72;;;;;;;;;;5027658;28;59433;-75
2024/03/07 04:29:44;;;;;;;2.63;2.42;;;;;;;;;;5029051;28;59588;-75
2024/03/07 04:32:09;;;;;;;1.80;1.70;;;;;;;;;;5027646;28;60290;-75
2024/03/07 04:34:36;;;;;;;2.20;2.00;;;;;;;;;;5027194;28;59292;-75
2024/03/07 04:37:01;;;;;;;2.45;2.25;;;;;;;;;;5029604;28;59312;-74
2024/03/07 04:39:32;;;;;;;2.30;2.20;;;;;;;;;;5029094;28;59798;-74
2024/03/07 04:42:01;;;;;;;2.50;2.05;;;;;;;;;;5028607;28;59394;-74
2024/03/07 04:44:30;;;;;;;2.58;2.35;;;;;;;;;;5028605;28;60892;-75
2024/03/07 04:46:56;;;;;;;2.67;2.47;;;;;;;;;;5028213;28;59378;-75
2024/03/07 04:49:23;;;;;;;2.10;1.90;;;;;;;;;;5026939;28;59197;-75
2024/03/07 04:51:48;;;;;;;2.20;2.00;;;;;;;;;;5029495;28;60348;-77
2024/03/07 04:54:13;;;;;;;1.75;1.65;;;;;;;;;;5027500;28;59361;-77
2024/03/07 04:56:39;;;;;;;2.15;2.05;;;;;;;;;;5027799;27;59205;-77
2024/03/07 04:59:04;;;;;;;2.73;2.53;;;;;;;;;;5027598;28;59421;-77
2024/03/07 05:01:31;;;;;;;1.80;1.70;;;;;;;;;;5027538;28;60108;-76
2024/03/07 05:03:56;;;;;;;2.65;2.40;;;;;;;;;;5026988;28;59973;-77
2024/03/07 05:06:21;;;;;;;2.50;2.30;;;;;;;;;;5027993;28;60125;-76
2024/03/07 05:08:46;;;;;;;2.60;2.20;;;;;;;;;;5029120;28;59184;-77
2024/03/07 05:11:11;;;;;;;2.07;1.90;;;;;;;;;;5027819;28;60000;-77
2024/03/07 05:13:37;;;;;;;2.67;2.47;;;;;;;;;;5027671;28;59327;-77
2024/03/07 05:16:02;;;;;;;3.00;2.67;;;;;;;;;;5027808;28;59340;-77
2024/03/07 05:18:27;;;;;;;2.70;2.50;;;;;;;;;;5028471;28;61218;-77
2024/03/07 05:20:54;;;;;;;2.83;2.43;;;;;;;;;;5028697;28;59375;-77
2024/03/07 05:23:19;;;;;;;2.05;1.88;;;;;;;;;;5027793;28;60314;-77
2024/03/07 05:25:45;;;;;;;2.38;2.17;;;;;;;;;;5025306;28;59398;-77
2024/03/07 05:28:11;;;;;;;2.10;1.90;;;;;;;;;;5028262;28;59629;-77
2024/03/07 05:30:36;;;;;;;2.22;2.05;;;;;;;;;;5026968;28;66036;-77
2024/03/07 05:33:02;;;;;;;2.42;2.22;;;;;;;;;;5026467;28;59240;-77
2024/03/07 05:35:29;;;;;;;2.20;2.03;;;;;;;;;;5027339;28;59495;-77
2024/03/07 05:37:56;;;;;;;2.78;2.58;;;;;;;;;;5025291;28;60283;-77
2024/03/07 05:40:21;;;;;;;1.75;1.65;;;;;;;;;;5022589;28;60109;-76
2024/03/07 05:42:46;;;;;;;2.73;2.47;;;;;;;;;;5027808;28;59295;-77
2024/03/07 05:45:13;;;;;;;2.93;2.73;;;;;;;;;;5025811;28;59179;-77
2024/03/07 05:47:38;;;;;;;2.38;2.17;;;;;;;;;;5025689;28;60653;-77
2024/03/07 05:50:04;;;;;;;2.95;2.75;;;;;;;;;;5029058;28;61056;-77
2024/03/07 05:52:29;;;;;;;3.42;3.13;;;;;;;;;;5027355;28;59290;-76
2024/03/07 05:54:54;;;;;;;3.15;2.63;;;;;;;;;;5028662;28;59254;-77
2024/03/07 05:57:19;;;;;;;3.95;2.67;;;;;;;;;;5027269;28;60093;-77
2024/03/07 05:59:46;;;;;;;2.40;2.20;;;;;;;;;;5026274;28;59246;-77
2024/03/07 06:02:15;;;;;;;2.80;2.60;;;;;;;;;;5026932;28;59124;-75
2024/03/07 06:04:40;;;;;;;2.75;2.55;;;;;;;;;;5027042;27;61291;-74
2024/03/07 06:07:05;;;;;;;2.50;2.30;;;;;;;;;;5027653;28;59334;-75
2024/03/07 06:09:31;;;;;;;2.78;2.58;;;;;;;;;;5027164;28;61182;-75
2024/03/07 06:11:56;;;;;;;2.90;2.55;;;;;;;;;;5025558;28;59367;-75
2024/03/07 06:14:22;;;;;;;3.57;2.70;;;;;;;;;;5025829;28;59515;-75
2024/03/07 06:16:48;;;;;;;3.08;2.58;;;;;;;;;;5025741;28;60262;-76
2024/03/07 06:19:13;;;;;;;8.40;2.93;;;;;;;;;;5024725;28;59391;-75
2024/03/07 06:21:39;;;;;;;3.50;2.23;;;;;;;;;;5026181;28;59186;-75
2024/03/07 06:24:05;;;;;;;3.20;2.90;;;;;;;;;;5022442;28;60280;-74
2024/03/07 06:26:37;;;;;;;3.33;2.72;;;;;;;;;;5026925;28;59294;-75
2024/03/07 06:29:05;;;;;;;3.67;2.92;;;;;;;;;;5022753;28;60334;-75
2024/03/07 06:31:30;;;;;;;4.95;3.70;;;;;;;;;;5021296;27;59441;-75
2024/03/07 06:33:56;;;;;;;6.25;5.20;;;;;;;;;;5022772;28;59203;-75
2024/03/07 06:36:21;;;;;;;5.93;5.22;;;;;;;;;;5024564;28;61375;-75
2024/03/07 06:38:46;;;;;;;8.88;6.03;;;;;;;;;;5024231;27;59368;-75
2024/03/07 06:41:12;;;;;;;7.93;6.32;;;;;;;;;;5028506;28;59267;-75
2024/03/07 06:43:37;;;;;;;6.20;5.10;;;;;;;;;;5030093;28;60591;-74
2024/03/07 06:46:02;;;;;;;9.38;5.75;;;;;;;;;;5028333;28;59392;-74
2024/03/07 06:48:28;;;;;;;6.75;6.05;;;;;;;;;;5030969;28;58553;-75
2024/03/07 06:50:53;;;;;;;6.40;5.18;;;;;;;;;;5029485;28;59137;-75
2024/03/07 06:53:19;;;;;;;6.53;5.20;;;;;;;;;;5028807;28;59285;-75
2024/03/07 06:55:44;;;;;;;7.65;5.60;;;;;;;;;;5029623;28;60561;-75
2024/03/07 06:58:10;;;;;;;5.97;4.97;;;;;;;;;;5022113;28;59330;-75
2024/03/07 07:00:35;;;;;;;5.03;4.53;;;;;;;;;;5027883;28;59239;-75
2024/03/07 07:03:03;;;;;;;7.03;5.72;;;;;;;;;;5025725;28;60480;-75
2024/03/07 07:05:28;;;;;;;6.25;4.30;;;;;;;;;;5025911;28;59401;-75
2024/03/07 07:07:54;;;;;;;5.28;4.78;;;;;;;;;;5026519;28;59360;-75
2024/03/07 07:10:23;;;;;;;4.57;3.97;;;;;;;;;;5027297;28;59332;-75
2024/03/07 07:12:48;;;;;;;11.43;5.63;;;;;;;;;;5027883;28;59294;-77
2024/03/07 07:15:15;;;;;;;5.93;4.73;;;;;;;;;;5030005;28;61034;-77
2024/03/07 07:17:40;;;;;;;5.57;4.15;;;;;;;;;;5026646;28;59453;-77
2024/03/07 07:20:10;;;;;;;6.00;4.25;;;;;;;;;;5028642;27;59247;-77
2024/03/07 07:22:35;;;;;;;5.93;4.53;;;;;;;;;;5028061;28;61290;-76
2024/03/07 07:25:00;;;;;;;5.53;4.50;;;;;;;;;;5027832;28;59267;-77
2024/03/07 07:27:25;;;;;;;5.32;4.80;;;;;;;;;;5029620;28;59265;-77
2024/03/07 07:29:50;;;;;;;7.45;4.93;;;;;;;;;;5029790;28;59228;-77
2024/03/07 07:32:16;;;;;;;7.80;4.60;;;;;;;;;;5030680;28;59165;-77
2024/03/07 07:34:42;;;;;;;7.95;4.53;;;;;;;;;;5029061;28;60062;-77
2024/03/07 07:37:08;;;;;;;9.85;5.10;;;;;;;;;;5030050;28;59393;-77
2024/03/07 07:39:34;;;;;;;6.47;5.15;;;;;;;;;;5028784;27;59311;-77
2024/03/07 07:41:59;;;;;;;7.45;4.70;;;;;;;;;;5030263;28;60085;-77
2024/03/07 07:44:24;;;;;;;6.70;4.63;;;;;;;;;;5029082;27;59317;-76
2024/03/07 07:46:49;;;;;;;9.83;5.00;;;;;;;;;;5030203;28;60240;-77
2024/03/07 07:49:15;;;;;;;7.03;5.47;;;;;;;;;;5029065;28;60434;-77
2024/03/07 07:51:41;;;;;;;7.07;4.28;;;;;;;;;;5031024;28;59400;-76
2024/03/07 07:54:06;;;;;;;6.68;4.72;;;;;;;;;;5026738;28;60277;-77
2024/03/07 07:56:33;;;;;;;6.80;4.80;;;;;;;;;;5028669;28;59398;-77
2024/03/07 07:58:58;;;;;;;9.10;5.03;;;;;;;;;;5028210;28;59441;-77
2024/03/07 08:01:24;;;;;;;6.33;4.30;;;;;;;;;;5028369;28;60056;-77
2024/03/07 08:03:49;;;;;;;7.32;4.68;;;;;;;;;;5029504;28;58626;-77
2024/03/07 08:06:14;;;;;;;9.47;5.73;;;;;;;;;;5028552;28;59352;-77
2024/03/07 08:08:39;;;;;;;4.80;3.57;;;;;;;;;;5029116;27;60103;-77
2024/03/07 08:11:04;;;;;;;7.13;4.50;;;;;;;;;;5028992;28;59748;-75
2024/03/07 08:13:29;;;;;;;7.17;4.93;;;;;;;;;;5028871;28;59203;-75
2024/03/07 08:15:55;;;;;;;7.97;5.07;;;;;;;;;;5028901;28;60821;-75
2024/03/07 08:18:20;;;;;;;7.00;4.40;;;;;;;;;;5028027;28;59205;-75
2024/03/07 08:20:45;;;;;;;9.33;4.47;;;;;;;;;;5028350;28;60411;-75
2024/03/07 08:23:12;;;;;;;10.10;4.82;;;;;;;;;;5029158;28;59287;-75
2024/03/07 08:25:39;;;;;;;6.65;3.80;;;;;;;;;;5028688;28;59219;-74
2024/03/07 08:28:05;;;;;;;6.38;4.38;;;;;;;;;;5033187;28;61174;-75
2024/03/07 08:30:30;;;;;;;6.82;4.07;;;;;;;;;;5029987;28;60013;-75
2024/03/07 08:32:56;;;;;;;6.50;3.72;;;;;;;;;;5028480;28;59241;-75
2024/03/07 08:35:21;;;;;;;5.13;3.53;;;;;;;;;;5027431;28;60151;-75
2024/03/07 08:37:52;;;;;;;6.05;3.97;;;;;;;;;;5028327;28;59761;-75
2024/03/07 08:40:20;;;;;;;6.05;3.95;;;;;;;;;;5026260;28;61247;-75
2024/03/07 08:42:45;;;;;;;;;;;;;;;;;;5028705;28;59414;-75
2024/03/07 08:45:11;;;;;;;7.72;4.13;;;;;;;;;;5028768;27;59360;-75
2024/03/07 08:47:37;;;;;;;5.78;4.18;;;;;;;;;;5026057;28;61024;-74
2024/03/07 08:50:08;;;;;;;5.10;3.58;;;;;;;;;;5029574;28;60200;-75
2024/03/07 08:52:36;;;;;;;4.82;3.30;;;;;;;;;;5028921;28;59316;-75
2024/03/07 08:55:02;;;;;;;6.72;4.43;;;;;;;;;;5027746;28;61364;-74
2024/03/07 08:57:27;;;;;;;5.60;3.72;;;;;;;;;;5026999;28;59260;-75
2024/03/07 08:59:52;;;;;;;4.15;3.00;;;;;;;;;;5027334;28;59436;-75
2024/03/07 09:02:17;;;;;;;4.10;2.93;;;;;;;;;;5027162;28;59687;-75
2024/03/07 09:04:42;;;;;;;4.90;3.43;;;;;;;;;;5029808;28;59199;-75
2024/03/07 09:07:07;;;;;;;6.53;3.85;;;;;;;;;;5027950;28;59187;-75
2024/03/07 09:09:33;;;;;;;5.67;3.63;;;;;;;;;;5028404;28;59243;-75
2024/03/07 09:11:59;;;;;;;5.70;4.15;;;;;;;;;;5027080;28;58730;-75
2024/03/07 09:14:24;;;;;;;4.57;3.20;;;;;;;;;;5026831;28;60940;-75
2024/03/07 09:16:49;;;;;;;4.10;3.15;;;;;;;;;;5027952;28;59880;-75
2024/03/07 09:19:19;;;;;;;4.57;4.03;;;;;;;;;;5024854;28;60288;-75
2024/03/07 09:21:46;;;;;;;6.15;2.90;;;;;;;;;;5024398;28;59802;-74
2024/03/07 09:24:11;;;;;;;3.40;2.97;;;;;;;;;;5027505;28;59236;-74
2024/03/07 09:26:36;;;;;;;6.22;3.08;;;;;;;;;;5027435;28;60966;-74
2024/03/07 09:29:05;;;;;;;4.35;3.15;;;;;;;;;;5027840;27;59875;-74
2024/03/07 09:31:31;;;;;;;3.17;2.88;;;;;;;;;;5026298;28;59185;-75
2024/03/07 09:33:58;;;;;;;3.10;2.80;;;;;;;;;;5029640;28;59925;-75
2024/03/07 09:36:23;;;;;;;3.58;2.70;;;;;;;;;;5027854;28;59906;-75
2024/03/07 09:38:48;;;;;;;4.68;4.07;;;;;;;;;;5027690;28;59241;-75
2024/03/07 09:41:15;;;;;;;3.50;3.20;;;;;;;;;;5027386;28;59302;-75
2024/03/07 09:43:43;;;;;;;4.65;3.45;;;;;;;;;;5028203;28;59263;-75
2024/03/07 09:46:10;;;;;;;3.13;2.83;;;;;;;;;;5026137;28;61122;-75
2024/03/07 09:48:35;;;;;;;3.13;2.65;;;;;;;;;;5027686;28;59711;-75
2024/03/07 09:51:02;;;;;;;3.50;2.80;;;;;;;;;;5025771;28;59295;-75
2024/03/07 09:53:27;;;;;;;3.42;2.88;;;;;;;;;;5027728;28;60304;-74
2024/03/07 09:55:53;;;;;;;2.93;2.43;;;;;;;;;;5024471;28;59717;-75
2024/03/07 09:58:22;;;;;;;4.35;2.83;;;;;;;;;;5026124;28;59302;-75
2024/03/07 10:00:50;;;;;;;2.97;2.78;;;;;;;;;;5025142;28;61130;-75
2024/03/07 10:03:17;;;;;;;4.28;2.72;;;;;;;;;;5025357;28;59305;-75
2024/03/07 10:05:42;;;;;;;3.42;2.67;;;;;;;;;;5025746;28;60159;-75
2024/03/07 10:08:07;;;;;;;3.90;3.33;;;;;;;;;;5025250;28;59433;-75
2024/03/07 10:10:33;;;;;;;4.37;3.03;;;;;;;;;;5026611;28;59318;-74
2024/03/07 10:12:58;;;;;;;3.42;3.13;;;;;;;;;;5029819;28;59346;-75
2024/03/07 10:15:30;;;;;;;3.42;3.13;;;;;;;;;;5026428;28;59284;-75
2024/03/07 10:17:55;;;;;;;3.55;2.80;;;;;;;;;;5024633;28;59211;-75
2024/03/07 10:20:22;;;;;;;3.70;3.40;;;;;;;;;;5026198;28;60256;-75
2024/03/07 10:22:48;;;;;;;2.92;2.72;;;;;;;;;;5026669;28;59809;-75
2024/03/07 10:25:17;;;;;;;2.88;2.63;;;;;;;;;;5023701;28;60820;-75
2024/03/07 10:27:43;;;;;;;4.43;3.20;;;;;;;;;;5024657;28;59262;-75
2024/03/07 10:30:09;;;;;;;3.05;2.75;;;;;;;;;;5027788;28;59181;-75
2024/03/07 10:32:35;;;;;;;3.38;3.00;;;;;;;;;;5025882;28;59393;-74
2024/03/07 10:35:03;;;;;;;2.70;2.50;;;;;;;;;;5027044;28;59421;-74
2024/03/07 10:37:28;;;;;;;3.00;2.80;;;;;;;;;;5022801;28;59314;-74
2024/03/07 10:39:53;;;;;;;3.20;2.90;;;;;;;;;;5027559;28;60370;-74
2024/03/07 10:42:19;;;;;;;2.95;2.47;;;;;;;;;;5024481;28;59567;-75
2024/03/07 10:44:45;;;;;;;2.78;2.53;;;;;;;;;;5028403;28;59222;-74
2024/03/07 10:47:15;;;;;;;5.00;3.08;;;;;;;;;;5026128;28;59247;-75
2024/03/07 10:49:47;;;;;;;2.75;2.55;;;;;;;;;;5026577;28;59141;-75
2024/03/07 10:52:25;;;;;;;3.00;2.70;;;;;;;;;;5027212;28;61158;-75
2024/03/07 10:55:09;;;;;;;3.45;3.17;;;;;;;;;;5026142;28;59219;-74
2024/03/07 10:57:45;;;;;;;3.08;2.80;;;;;;;;;;5026579;28;59168;-75
2024/03/07 11:00:29;;;;;;;2.75;2.55;;;;;;;;;;5026547;28;60284;-74
2024/03/07 11:02:55;;;;;;;2.90;2.60;;;;;;;;;;5024405;28;59409;-75
2024/03/07 11:05:24;;;;;;;2.65;2.45;;;;;;;;;;5024360;28;59270;-75
2024/03/07 11:07:49;;;;;;;2.60;2.40;;;;;;;;;;5023532;28;60755;-74
2024/03/07 11:10:17;;;;;;;2.95;2.45;;;;;;;;;;5024839;28;59207;-75
2024/03/07 11:12:43;;;;;;;3.45;2.88;;;;;;;;;;5023911;28;60342;-74
2024/03/07 11:15:14;;;;;;;3.28;2.83;;;;;;;;;;5026110;28;59245;-75
2024/03/07 11:17:40;;;;;;;2.60;2.40;;;;;;;;;;5024469;28;59246;-74
2024/03/07 11:20:21;;;;;;;3.17;2.88;;;;;;;;;;5026028;28;60951;-75
2024/03/07 11:22:46;;;;;;;2.60;2.40;;;;;;;;;;5024732;28;59378;-75
2024/03/07 11:25:12;;;;;;;3.67;2.83;;;;;;;;;;5029168;28;59283;-75
2024/03/07 11:27:42;;;;;;;3.42;3.03;;;;;;;;;;5025728;28;60474;-75
2024/03/07 11:30:08;;;;;;;2.75;2.55;;;;;;;;;;5027339;28;59270;-74
2024/03/07 11:32:41;;;;;;;2.75;2.55;;;;;;;;;;5027269;28;59377;-74
2024/03/07 11:35:13;;;;;;;2.80;2.40;;;;;;;;;;5028431;28;59373;-74
2024/03/07 11:37:48;;;;;;;3.10;2.58;;;;;;;;;;5029827;27;59218;-75
2024/03/07 11:40:33;;;;;;;2.55;2.33;;;;;;;;;;5029157;28;60105;-75
2024/03/07 11:43:00;;;;;;;2.72;2.53;;;;;;;;;;5028130;28;59274;-74
2024/03/07 11:45:25;;;;;;;3.85;2.92;;;;;;;;;;5029205;28;59178;-74
2024/03/07 11:47:57;;;;;;;2.80;2.60;;;;;;;;;;5027869;28;60199;-74
2024/03/07 11:50:25;;;;;;;3.17;2.83;;;;;;;;;;5027967;28;59319;-74
2024/03/07 11:52:50;;;;;;;3.33;2.97;;;;;;;;;;5028588;28;60222;-74
2024/03/07 11:55:16;;;;;;;2.83;2.58;;;;;;;;;;5027418;28;59532;-74
2024/03/07 11:57:44;;;;;;;3.28;2.97;;;;;;;;;;5028818;28;59238;-74
2024/03/07 12:00:10;;;;;;;3.22;2.92;;;;;;;;;;5029470;28;60614;-74
2024/03/07 12:02:36;;;;;;;3.15;2.95;;;;;;;;;;5028011;28;59151;-74
2024/03/07 12:05:05;;;;;;;3.40;3.10;;;;;;;;;;5028029;28;59253;-74
2024/03/07 12:07:30;;;;;;;2.55;2.35;;;;;;;;;;5028774;28;60405;-74
2024/03/07 12:09:55;;;;;;;2.40;2.20;;;;;;;;;;5031026;28;59263;-74
2024/03/07 12:12:24;;;;;;;2.92;2.70;;;;;;;;;;5029984;28;59182;-74
2024/03/07 12:14:52;;;;;;;3.05;2.78;;;;;;;;;;5026274;28;59946;-74
2024/03/07 12:17:17;;;;;;;3.13;2.83;;;;;;;;;;5026949;28;59203;-74
2024/03/07 12:19:43;;;;;;;2.70;2.50;;;;;;;;;;5025085;28;59668;-74
2024/03/07 12:22:22;;;;;;;3.05;2.75;;;;;;;;;;5029771;28;59897;-74
2024/03/07 12:24:47;;;;;;;2.47;2.28;;;;;;;;;;5029041;28;59190;-74
2024/03/07 12:27:12;;;;;;;2.80;2.60;;;;;;;;;;5029533;27;59169;-74
2024/03/07 12:29:42;;;;;;;3.03;2.80;;;;;;;;;;5026748;27;59299;-75
2024/03/07 12:32:08;;;;;;;2.80;2.60;;;;;;;;;;5025579;28;59324;-74
2024/03/07 12:34:37;;;;;;;3.15;2.85;;;;;;;;;;5015549;28;60056;-74
2024/03/07 12:37:03;;;;;;;2.63;2.42;;;;;;;;;;5014903;28;59166;-74
2024/03/07 12:39:35;;;;;;;3.15;2.30;;;;;;;;;;5015817;28;60416;-74
2024/03/07 12:42:01;;;;;;;3.20;2.90;;;;;;;;;;5025723;28;59572;-74
2024/03/07 12:44:27;;;;;;;2.90;2.70;;;;;;;;;;5029637;28;59250;-74
2024/03/07 12:46:55;;;;;;;2.45;2.25;;;;;;;;;;5026131;28;60521;-74
2024/03/07 12:49:26;;;;;;;2.65;2.20;;;;;;;;;;5017485;28;59333;-74
2024/03/07 12:51:53;;;;;;;2.70;2.42;;;;;;;;;;5027343;28;59234;-74
2024/03/07 12:54:18;;;;;;;3.38;3.15;;;;;;;;;;5029084;27;61123;-74
2024/03/07 12:56:44;;;;;;;2.60;2.40;;;;;;;;;;5027398;28;59765;-74
2024/03/07 12:59:09;;;;;;;3.60;3.30;;;;;;;;;;5023030;28;60178;-75
2024/03/07 13:01:39;;;;;;;3.75;3.40;;;;;;;;;;5018055;28;59201;-74
2024/03/07 13:04:07;;;;;;;3.13;2.80;;;;;;;;;;5027234;28;59149;-74
2024/03/07 13:06:33;;;;;;;2.75;2.55;;;;;;;;;;5018566;28;60395;-74
2024/03/07 13:08:58;;;;;;;3.60;3.30;;;;;;;;;;5018115;28;59240;-75
2024/03/07 13:11:23;;;;;;;3.07;2.87;;;;;;;;;;5023945;28;59112;-75
2024/03/07 13:13:48;;;;;;;2.73;2.53;;;;;;;;;;5026255;28;61309;-74
2024/03/07 13:16:14;;;;;;;3.77;3.30;;;;;;;;;;5016363;28;59275;-75
2024/03/07 13:18:39;;;;;;;2.70;2.50;;;;;;;;;;5030271;28;59242;-74
2024/03/07 13:21:06;;;;;;;3.50;3.20;;;;;;;;;;5020331;28;59464;-75
2024/03/07 13:23:32;;;;;;;2.83;2.63;;;;;;;;;;5026846;28;60074;-74
2024/03/07 13:25:57;;;;;;;2.63;2.42;;;;;;;;;;5030025;28;60271;-74
2024/03/07 13:28:26;;;;;;;2.65;2.45;;;;;;;;;;5030914;28;59538;-75
2024/03/07 13:30:54;;;;;;;4.47;3.67;;;;;;;;;;5026920;28;59325;-75
2024/03/07 13:33:19;;;;;;;;;;;;;;;;;;5027779;28;60353;-74
2024/03/07 13:35:44;;;;;;;2.70;2.50;;;;;;;;;;5018255;28;59796;-74
2024/03/07 13:38:10;;;;;;;2.50;2.30;;;;;;;;;;5016587;28;59167;-74
2024/03/07 13:40:38;;;;;;;3.47;3.17;;;;;;;;;;5015827;28;59388;-74
2024/03/07 13:43:03;;;;;;;2.95;2.75;;;;;;;;;;5028646;28;59217;-74
2024/03/07 13:45:31;;;;;;;3.20;2.97;;;;;;;;;;5026883;28;60519;-74
2024/03/07 13:47:58;;;;;;;2.80;2.60;;;;;;;;;;5025347;28;59231;-75
2024/03/07 13:50:24;;;;;;;3.17;2.88;;;;;;;;;;5028696;28;59163;-74
2024/03/07 13:53:10;;;;;;;2.50;2.30;;;;;;;;;;5021138;28;60353;-74
2024/03/07 13:55:42;;;;;;;3.05;2.85;;;;;;;;;;5011617;28;59390;-74
2024/03/07 13:58:14;;;;;;;3.25;3.05;;;;;;;;;;5011360;28;59299;-74
2024/03/07 14:00:47;;;;;;;3.53;3.22;;;;;;;;;;5010741;28;64533;-74
2024/03/07 14:03:41;;;;;;;2.47;2.28;;;;;;;;;;5020567;28;59113;-75
2024/03/07 14:06:11;;;;;;;3.13;2.83;;;;;;;;;;5015945;28;60868;-74
2024/03/07 14:08:49;;;;;;;2.75;2.55;;;;;;;;;;5017824;28;59350;-74
2024/03/07 14:11:35;;;;;;;2.50;2.30;;;;;;;;;;5014825;28;59222;-74
2024/03/07 14:14:19;;;;;;;2.53;2.33;;;;;;;;;;5014031;28;59877;-74
2024/03/07 14:17:13;;;;;;;2.90;2.70;;;;;;;;;;5019062;28;59279;-74
2024/03/07 14:19:57;;;;;;;2.97;2.78;;;;;;;;;;5026308;28;59330;-74
2024/03/07 14:22:32;;;;;;;2.50;2.30;;;;;;;;;;5016815;28;59158;-75
2024/03/07 14:25:05;;;;;;;2.70;2.50;;;;;;;;;;5027181;28;59264;-75
2024/03/07 14:27:38;;;;;;;2.60;2.40;;;;;;;;;;5027210;28;60742;-75
2024/03/07 14:30:21;;;;;;;2.38;2.25;;;;;;;;;;5025800;28;59910;-75
2024/03/07 14:32:46;;;;;;;3.20;3.00;;;;;;;;;;5025950;28;59347;-75
2024/03/07 14:35:22;;;;;;;2.38;2.17;;;;;;;;;;5027004;28;60949;-75
2024/03/07 14:37:55;;;;;;;2.92;2.72;;;;;;;;;;5024090;28;59937;-75
2024/03/07 14:40:22;;;;;;;2.83;2.63;;;;;;;;;;5027831;28;59240;-75